Latest Weather Observations for Kurnell

IDN60801

Issued at 6:03 am EDT Saturday 28 March 2015 (issued every 30 minutes, with the page automatically refreshed every 10 minutes)

About weather observations | Map of weather stations | Latest weather observations for NSW | Other Formats
Station Details ID: 066043 Name: KURNELL AWS Lat: -34.00 Lon: 151.21 Height: 4.0 m
Data from the previous 72 hours. | See also: Recent months for locations in New South Wales
Date/Time
EDT
Temp
°C
App
Temp
°C
Dew
Point
Rel
Hum
%
Delta-T
°C
Wind Press
QNH
hPa
Press
MSL
hPa
Rain
since 9 am
mm
Dir
 
Spd
km/h
Gust
km/h
Spd
kts
Gust
kts
28/05:30am - - - - - W 19 22 10 12 - - -
28/05:00am - - - - - W 20 24 11 13 - - -
28/04:30am - - - - - W 19 22 10 12 - - -
28/04:00am - - - - - WSW 17 20 9 11 - - -
28/03:30am - - - - - WSW 17 22 9 12 - - -
28/03:00am - - - - - WSW 17 22 9 12 - - -
28/02:30am - - - - - W 22 28 12 15 - - -
28/02:00am - - - - - W 26 30 14 16 - - -
28/01:30am - - - - - W 24 30 13 16 - - -
28/01:00am - - - - - W 28 33 15 18 - - -
28/12:30am - - - - - W 24 30 13 16 - - -
 
Date/Time
EDT
Temp
°C
App
Temp
°C
Dew
Point
Rel
Hum
%
Delta-T
°C
Wind Press
QNH
hPa
Press
MSL
hPa
Rain
since 9 am
mm
Dir
 
Spd
km/h
Gust
km/h
Spd
kts
Gust
kts
27/11:30pm - - - - - W 20 26 11 14 - - -
27/11:00pm - - - - - W 20 26 11 14 - - -
27/10:30pm - - - - - W 24 28 13 15 - - -
27/10:00pm - - - - - WSW 24 32 13 17 - - -
27/09:30pm - - - - - WSW 26 37 14 20 - - -
27/09:00pm - - - - - WNW 11 15 6 8 - - -
27/08:30pm - - - - - WNW 13 19 7 10 - - -
27/08:00pm - - - - - NNE 9 13 5 7 - - -
27/07:30pm - - - - - WSW 17 22 9 12 - - -
27/07:00pm - - - - - WSW 17 22 9 12 - - -
27/06:30pm - - - - - SW 15 19 8 10 - - -
27/06:00pm - - - - - WSW 17 20 9 11 - - -
27/05:30pm - - - - - WSW 19 26 10 14 - - -
27/05:00pm - - - - - WSW 28 39 15 21 - - -
27/04:30pm - - - - - WSW 26 37 14 20 - - -
27/04:00pm - - - - - WSW 20 26 11 14 - - -
27/03:30pm - - - - - WSW 24 37 13 20 - - -
27/03:00pm - - - - - WNW 24 30 13 16 - - -
27/02:30pm - - - - - W 24 33 13 18 - - -
27/02:00pm - - - - - WNW 28 33 15 18 - - -
27/01:30pm - - - - - W 35 43 19 23 - - -
27/01:00pm - - - - - WNW 24 33 13 18 - - -
27/12:30pm - - - - - W 28 35 15 19 - - -
27/12:00pm - - - - - W 32 39 17 21 - - -
27/11:30am - - - - - W 32 39 17 21 - - -
27/11:00am - - - - - W 33 41 18 22 - - -
27/10:30am - - - - - WNW 30 35 16 19 - - -
27/10:00am - - - - - WNW 30 37 16 20 - - -
27/09:30am - - - - - W 30 37 16 20 - - -
27/09:00am - - - - - W 24 32 13 17 - - -
27/08:30am - - - - - W 26 37 14 20 - - -
27/08:00am - - - - - WNW 17 22 9 12 - - -
27/07:30am - - - - - W 24 28 13 15 - - -
27/07:00am - - - - - WSW 20 30 11 16 - - -
27/06:30am - - - - - W 20 26 11 14 - - -
27/06:00am - - - - - W 19 26 10 14 - - -
27/05:30am - - - - - W 17 24 9 13 - - -
27/05:00am - - - - - WNW 17 22 9 12 - - -
27/04:30am - - - - - W 15 24 8 13 - - -
27/04:00am - - - - - SW 13 17 7 9 - - -
27/03:30am - - - - - W 17 20 9 11 - - -
27/03:00am - - - - - SW 11 15 6 8 - - -
27/02:30am - - - - - WSW 19 26 10 14 - - -
27/02:00am - - - - - W 20 28 11 15 - - -
27/01:30am - - - - - W 17 22 9 12 - - -
27/01:00am - - - - - WSW 13 17 7 9 - - -
27/12:30am - - - - - SW 28 43 15 23 - - -
27/12:00am - - - - - SW 22 33 12 18 - - -
 
Date/Time
EDT
Temp
°C
App
Temp
°C
Dew
Point
Rel
Hum
%
Delta-T
°C
Wind Press
QNH
hPa
Press
MSL
hPa
Rain
since 9 am
mm
Dir
 
Spd
km/h
Gust
km/h
Spd
kts
Gust
kts
26/11:30pm - - - - - WSW 26 33 14 18 - - -
26/11:00pm - - - - - W 26 35 14 19 - - -
26/10:30pm - - - - - W 37 46 20 25 - - -
26/10:00pm - - - - - W 26 32 14 17 - - -
26/09:30pm - - - - - WSW 17 20 9 11 - - -
26/09:00pm - - - - - WSW 19 24 10 13 - - -
26/08:30pm - - - - - W 13 19 7 10 - - -
26/08:00pm - - - - - SW 13 22 7 12 - - -
26/07:30pm - - - - - NNE 7 15 4 8 - - -
26/07:00pm - - - - - ENE 9 11 5 6 - - -
26/06:30pm - - - - - ENE 9 11 5 6 - - -
26/06:00pm - - - - - ESE 9 15 5 8 - - -
26/05:30pm - - - - - E 15 19 8 10 - - -
26/05:00pm - - - - - E 19 26 10 14 - - -
26/04:30pm - - - - - E 22 26 12 14 - - -
26/04:00pm - - - - - ESE 17 24 9 13 - - -
26/03:30pm - - - - - E 20 30 11 16 - - -
26/03:00pm - - - - - SE 13 19 7 10 - - -
26/02:30pm - - - - - WNW 13 19 7 10 - - -
26/02:00pm - - - - - W 19 24 10 13 - - -
26/01:30pm - - - - - W 24 30 13 16 - - -
26/01:00pm - - - - - WNW 20 24 11 13 - - -
26/12:30pm - - - - - WNW 15 20 8 11 - - -
26/12:00pm - - - - - WNW 11 15 6 8 - - -
26/11:30am - - - - - WNW 13 17 7 9 - - -
26/11:00am - - - - - WNW 15 19 8 10 - - -
26/10:30am - - - - - WNW 19 22 10 12 - - -
26/10:00am - - - - - WNW 20 26 11 14 - - -
26/09:30am - - - - - WNW 20 26 11 14 - - -
26/09:00am - - - - - W 28 32 15 17 - - -
26/08:30am - - - - - WNW 19 26 10 14 - - -
26/08:00am - - - - - WNW 15 19 8 10 - - -
26/07:30am - - - - - NW 13 15 7 8 - - -
26/07:00am - - - - - WNW 17 19 9 10 - - -
26/06:30am - - - - - WNW 13 15 7 8 - - -
26/06:00am - - - - - WNW 9 11 5 6 - - -
26/05:30am - - - - - WNW 13 15 7 8 - - -
26/05:00am - - - - - WNW 7 9 4 5 - - -
26/04:30am - - - - - WNW 11 15 6 8 - - -
26/04:00am - - - - - WNW 13 15 7 8 - - -
26/03:30am - - - - - WNW 11 15 6 8 - - -
26/03:00am - - - - - WNW 13 15 7 8 - - -
26/02:30am - - - - - WNW 13 17 7 9 - - -
26/02:00am - - - - - WNW 13 15 7 8 - - -
26/01:30am - - - - - NW 15 17 8 9 - - -
26/01:00am - - - - - NNW 11 15 6 8 - - -
26/12:30am - - - - - NE 13 15 7 8 - - -
26/12:00am - - - - - NE 15 19 8 10 - - -
 
Date/Time
EDT
Temp
°C
App
Temp
°C
Dew
Point
Rel
Hum
%
Delta-T
°C
Wind Press
QNH
hPa
Press
MSL
hPa
Rain
since 9 am
mm
Dir
 
Spd
km/h
Gust
km/h
Spd
kts
Gust
kts
25/11:30pm - - - - - ENE 17 20 9 11 - - -
25/11:00pm - - - - - ENE 19 24 10 13 - - -
25/10:30pm - - - - - ENE 13 17 7 9 - - -
25/10:00pm - - - - - E 13 17 7 9 - - -
25/09:30pm - - - - - E 13 17 7 9 - - -
25/09:00pm - - - - - E 15 19 8 10 - - -
25/08:30pm - - - - - ESE 13 17 7 9 - - -
25/08:00pm - - - - - ESE 15 19 8 10 - - -
25/07:30pm - - - - - ESE 15 20 8 11 - - -
25/07:00pm - - - - - SE 15 20 8 11 - - -
25/06:30pm - - - - - SE 17 24 9 13 - - -
25/06:00pm - - - - - SSE 20 26 11 14 - - -
25/05:30pm - - - - - SSE 19 26 10 14 - - -
25/05:00pm - - - - - SSE 20 28 11 15 - - -
25/04:30pm - - - - - SSE 20 28 11 15 - - -
25/04:00pm - - - - - SSE 20 32 11 17 - - -
25/03:30pm - - - - - SSE 26 33 14 18 - - -
25/03:00pm - - - - - S 26 37 14 20 - - -
25/02:30pm - - - - - SSW 30 37 16 20 - - -
25/02:00pm - - - - - SSW 28 37 15 20 - - -
25/01:30pm - - - - - SSW 30 39 16 21 - - -
25/01:00pm - - - - - SSW 32 41 17 22 - - -
25/12:30pm - - - - - SSW 30 39 16 21 - - -
25/12:00pm - - - - - SSW 32 39 17 21 - - -
25/11:30am - - - - - SSW 30 41 16 22 - - -
25/11:00am - - - - - SSW 28 35 15 19 - - -
25/10:30am - - - - - SSW 32 41 17 22 - - -
25/10:00am - - - - - SSW 30 39 16 21 - - -
25/09:30am - - - - - SW 26 35 14 19 - - -
25/09:00am - - - - - SW 22 32 12 17 - - -
25/08:30am - - - - - WSW 17 20 9 11 - - -
25/08:00am - - - - - WSW 22 35 12 19 - - -
25/07:30am - - - - - SW 28 37 15 20 - - -
25/07:07am - - - - - SSW 30 48 16 26 - - -
25/07:00am - - - - - SSW 32 41 17 22 - - -
25/06:30am - - - - - SW 26 35 14 19 - - -

Other Formats:

Comma delimited format used in spreadsheet applications
http://www.bom.gov.au/fwo/IDN60801/IDN60801.95756.axf

JavaScript Object Notation format (JSON) in row-major order
http://www.bom.gov.au/fwo/IDN60801/IDN60801.95756.json